KBRO/BRO METAR and TAF weather

Enter ICAO airport designator
Station Type Date Time Source
KBRO METAR 2018/09/21 22:53 UTC NOAA

KBRO 212253Z 15016KT 10SM FEW029 32/25 A2985 RMK AO2 SLP106 T03170250


Station Type Date Time Source
KBRO Decoded METAR 2018/09/21 22:53 UTC NOAA

BROWNSVILLE/SOUTH PADRE IS, TX, United States (KBRO) 25-54N 97-25W 5M
Sep 21, 2018 - 06:53 PM EDT / 2018.09.21 2253 UTC
Wind: from the SSE (150 degrees) at 18 MPH (16 KT):0
Visibility: 10 mile(s):0
Sky conditions: mostly clear
Temperature: 89.1 F (31.7 C)
Heat index: 101.5 F (38.6 C):1
Dew Point: 77.0 F (25.0 C)
Relative Humidity: 67%
Pressure (altimeter): 29.85 in. Hg (1010 hPa)
ob: KBRO 212253Z 15016KT 10SM FEW029 32/25 A2985 RMK AO2 SLP106 T03170250
cycle: 23

Station Type Date Time Source
KBRO TAF 2018/09/21 18:22 UTC NOAA

TAF KBRO 211720Z 2118/2218 16013G19KT P6SM SCT035 SCT250
FM220300 15007KT P6SM SCT025 SCT250
FM221400 16011KT P6SM SCT035 BKN250


Example: see airport list